VIR210 UMMS-ULLI
Flight info
| Callsign | VIR210 |
|---|---|
| Flight time | N/A |
| Altitude | 37000 |
| Route | AGNEF2F AGNEF N743 DITBI T782 KOLET KOLET1V |
| Aircraft | B742/H-VGDW/C |
Departure
| Time | 2026-05-05 14:41 |
|---|---|
| Airport | Minsk National Airport (UMMS) |
Arrival
| Time | N/A |
|---|---|
| Airport | Pulkovo Airport (ULLI) |
| Time | Latitude | Longitude | Altitude | Speed | Heading |
|---|---|---|---|---|---|
| 2026-05-05 14:12 | 53.88663 | 28.03428 | 654 ft | 0 kts | 319° |
| 2026-05-05 14:33 | 53.88668 | 28.03421 | 654 ft | 3 kts | 319° |
| 2026-05-05 14:33 | 53.88694 | 28.03364 | 653 ft | 9 kts | 277° |
| 2026-05-05 14:34 | 53.88648 | 28.03316 | 653 ft | 12 kts | 150° |
| 2026-05-05 14:34 | 53.88566 | 28.03430 | 654 ft | 13 kts | 139° |
| 2026-05-05 14:34 | 53.88526 | 28.03525 | 655 ft | 10 kts | 86° |
| 2026-05-05 14:34 | 53.88579 | 28.03665 | 656 ft | 22 kts | 48° |
| 2026-05-05 14:35 | 53.88686 | 28.03873 | 659 ft | 22 kts | 48° |
| 2026-05-05 14:35 | 53.88783 | 28.04058 | 662 ft | 19 kts | 49° |
| 2026-05-05 14:35 | 53.88866 | 28.04223 | 666 ft | 16 kts | 51° |
| 2026-05-05 14:35 | 53.88937 | 28.04358 | 670 ft | 16 kts | 47° |
| 2026-05-05 14:36 | 53.89028 | 28.04528 | 674 ft | 19 kts | 49° |
| 2026-05-05 14:36 | 53.89130 | 28.04726 | 680 ft | 25 kts | 48° |
| 2026-05-05 14:36 | 53.89186 | 28.04854 | 683 ft | 10 kts | 76° |
| 2026-05-05 14:36 | 53.89140 | 28.04979 | 685 ft | 16 kts | 137° |
| 2026-05-05 14:37 | 53.89035 | 28.05135 | 687 ft | 23 kts | 139° |
| 2026-05-05 14:37 | 53.88891 | 28.05349 | 688 ft | 31 kts | 139° |
| 2026-05-05 14:37 | 53.88705 | 28.05624 | 688 ft | 39 kts | 138° |
| 2026-05-05 14:37 | 53.88479 | 28.05959 | 690 ft | 45 kts | 139° |
| 2026-05-05 14:38 | 53.88245 | 28.06304 | 689 ft | 44 kts | 139° |
| 2026-05-05 14:38 | 53.88046 | 28.06603 | 682 ft | 20 kts | 138° |
| 2026-05-05 14:38 | 53.87954 | 28.06747 | 678 ft | 16 kts | 129° |
| 2026-05-05 14:38 | 53.87943 | 28.06812 | 677 ft | 0 kts | 83° |
| 2026-05-05 14:39 | 53.87944 | 28.06818 | 677 ft | 3 kts | 81° |
| 2026-05-05 14:39 | 53.87965 | 28.06894 | 675 ft | 2 kts | 51° |
| 2026-05-05 14:39 | 53.87974 | 28.06913 | 675 ft | 7 kts | 49° |
| 2026-05-05 14:39 | 53.88053 | 28.06990 | 675 ft | 11 kts | 346° |
| 2026-05-05 14:40 | 53.88097 | 28.06942 | 677 ft | 0 kts | 318° |
| 2026-05-05 14:40 | 53.88106 | 28.06928 | 677 ft | 12 kts | 317° |
| 2026-05-05 14:40 | 53.88335 | 28.06581 | 686 ft | 75 kts | 318° |
| 2026-05-05 14:40 | 53.88878 | 28.05776 | 691 ft | 132 kts | 319° |
| 2026-05-05 14:41 | 53.89710 | 28.04568 | 781 ft | 171 kts | 318° |
| 2026-05-05 14:41 | 53.90612 | 28.03220 | 1301 ft | 173 kts | 317° |
| 2026-05-05 14:41 | 53.91509 | 28.01883 | 1874 ft | 176 kts | 315° |
| 2026-05-05 14:41 | 53.92426 | 28.00502 | 2446 ft | 180 kts | 316° |
| 2026-05-05 14:42 | 53.93352 | 27.99131 | 2899 ft | 180 kts | 314° |
| 2026-05-05 14:42 | 53.94338 | 27.97647 | 3062 ft | 196 kts | 315° |
| 2026-05-05 14:42 | 53.95466 | 27.96247 | 3312 ft | 211 kts | 335° |
| 2026-05-05 14:42 | 53.96972 | 27.96085 | 3568 ft | 234 kts | 13° |
| 2026-05-05 14:43 | 53.98548 | 27.97088 | 3831 ft | 251 kts | 16° |
| 2026-05-05 14:43 | 54.00270 | 27.98037 | 4132 ft | 266 kts | 12° |
| 2026-05-05 14:43 | 54.02026 | 27.98878 | 4758 ft | 267 kts | 11° |
| 2026-05-05 14:43 | 54.03807 | 27.99711 | 5389 ft | 270 kts | 15° |
| 2026-05-05 14:44 | 54.05414 | 28.01405 | 5950 ft | 280 kts | 47° |
| 2026-05-05 14:44 | 54.06338 | 28.04312 | 6533 ft | 284 kts | 79° |
| 2026-05-05 14:44 | 54.06476 | 28.07661 | 7031 ft | 289 kts | 93° |
| 2026-05-05 14:44 | 54.06416 | 28.11049 | 7380 ft | 285 kts | 94° |
| 2026-05-05 14:45 | 54.06367 | 28.14387 | 7725 ft | 282 kts | 93° |
| 2026-05-05 14:45 | 54.06338 | 28.17730 | 7910 ft | 286 kts | 92° |
| 2026-05-05 14:45 | 54.06321 | 28.20682 | 7953 ft | 284 kts | 92° |
| 2026-05-05 14:45 | 54.06406 | 28.24026 | 7967 ft | 286 kts | 86° |
| 2026-05-05 14:46 | 54.06616 | 28.27429 | 8022 ft | 302 kts | 85° |
| 2026-05-05 14:46 | 54.06848 | 28.31098 | 8474 ft | 312 kts | 85° |
| 2026-05-05 14:46 | 54.07071 | 28.34705 | 9260 ft | 311 kts | 85° |
| 2026-05-05 14:46 | 54.07349 | 28.38335 | 9896 ft | 313 kts | 75° |
| 2026-05-05 14:47 | 54.08239 | 28.41727 | 10450 ft | 317 kts | 58° |
| 2026-05-05 14:47 | 54.09411 | 28.44913 | 11027 ft | 321 kts | 56° |
| 2026-05-05 14:47 | 54.10630 | 28.48156 | 11438 ft | 332 kts | 56° |
| 2026-05-05 14:47 | 54.12030 | 28.51341 | 11838 ft | 341 kts | 42° |
| 2026-05-05 14:48 | 54.13938 | 28.53761 | 12326 ft | 344 kts | 25° |
| 2026-05-05 14:48 | 54.16101 | 28.55487 | 13027 ft | 342 kts | 19° |
| 2026-05-05 14:48 | 54.18278 | 28.57060 | 13638 ft | 345 kts | 19° |
| 2026-05-05 14:48 | 54.20470 | 28.58678 | 14264 ft | 348 kts | 20° |
| 2026-05-05 14:49 | 54.22707 | 28.60375 | 14857 ft | 351 kts | 20° |
| 2026-05-05 14:49 | 54.24909 | 28.62072 | 15415 ft | 354 kts | 21° |
| 2026-05-05 14:49 | 54.27168 | 28.63821 | 15997 ft | 357 kts | 21° |
| 2026-05-05 14:49 | 54.29424 | 28.65573 | 16525 ft | 360 kts | 22° |
| 2026-05-05 14:50 | 54.31720 | 28.67397 | 17085 ft | 363 kts | 22° |
| 2026-05-05 14:50 | 54.34003 | 28.69209 | 17603 ft | 367 kts | 22° |
| 2026-05-05 14:50 | 54.36318 | 28.71029 | 18156 ft | 369 kts | 22° |
| 2026-05-05 14:50 | 54.38611 | 28.72824 | 18652 ft | 373 kts | 21° |
| 2026-05-05 14:51 | 54.40989 | 28.74680 | 19213 ft | 375 kts | 21° |
| 2026-05-05 14:51 | 54.43343 | 28.76521 | 19744 ft | 378 kts | 21° |
| 2026-05-05 14:51 | 54.45744 | 28.78399 | 20281 ft | 381 kts | 21° |
| 2026-05-05 14:51 | 54.48200 | 28.80197 | 20782 ft | 381 kts | 14° |
| 2026-05-05 14:52 | 54.50765 | 28.81110 | 21275 ft | 379 kts | 3° |
| 2026-05-05 14:52 | 54.53397 | 28.81531 | 21782 ft | 381 kts | 0° |
| 2026-05-05 14:52 | 54.56052 | 28.81856 | 22268 ft | 384 kts | 0° |
| 2026-05-05 14:52 | 54.58712 | 28.82201 | 22736 ft | 387 kts | 1° |